Beverly M I — CFP2004 — position and weather

sailwx.info

Track history (hours):
 
Tides and Currents Weather Stations Pressure Air Temp Water Temp Dewpoint Dewpoint Depression Visibility Wind Speed Wind Dir Waves Ship Positions

Beverly M I

Last reported at 2018-Jun-15 10:47 UTC. Time now 2018-Jun-24 00:56 UTC.
Position N 47°20' W 052°41'.
Warning: this ship's position is 8 days out of date.

Length 34 m; draft 5 m.

Type: Ship. MMSI: 316005971.

Date/timePositionNaut miles runAvg speedWind from/ knotsBaromVisibWave heightAir tempDewpointWater temp
2018-Jun-15 10:47N 47°20' W 052°41'411.6
2018-Jun-15 10:26N 47°24' W 052°38'511.8
2018-Jun-15 09:59N 47°29' W 052°36'5 9.0
2018-Jun-15 09:28N 47°33' W 052°38'3 6.4
2018-Jun-15 08:56N 47°34' W 052°42'0 0.0
2018-Jun-15 08:30N 47°34' W 052°42'0 0.0
2018-Jun-15 08:00N 47°34' W 052°42'0 0.0
2018-Jun-15 07:30N 47°34' W 052°42'0 0.0
2018-Jun-15 06:58N 47°34' W 052°42'0 0.0
2018-Jun-15 06:23N 47°34' W 052°42'0 0.0
2018-Jun-15 05:56N 47°34' W 052°42'0 0.0
2018-Jun-15 05:26N 47°34' W 052°42'0 0.0
2018-Jun-15 05:00N 47°34' W 052°42'0 0.0
2018-Jun-15 04:28N 47°34' W 052°42'0 0.0
2018-Jun-15 03:58N 47°34' W 052°42'0 0.0
2018-Jun-15 03:27N 47°34' W 052°42'0 0.0
2018-Jun-15 02:57N 47°34' W 052°42'0 0.0
2018-Jun-15 02:30N 47°34' W 052°42'0 0.0
2018-Jun-15 01:59N 47°34' W 052°42'0 0.0
2018-Jun-15 01:27N 47°34' W 052°42'0 0.0
2018-Jun-15 00:56N 47°34' W 052°42'0 0.0
2018-Jun-15 00:30N 47°34' W 052°42'0 0.0
2018-Jun-14 23:58N 47°34' W 052°42'0 0.0
2018-Jun-14 23:29N 47°34' W 052°42'0 0.0
2018-Jun-14 22:58N 47°34' W 052°42'0 0.0
2018-Jun-14 22:25N 47°34' W 052°42'0 0.0
2018-Jun-14 21:59N 47°34' W 052°42'0 0.0
2018-Jun-14 21:27N 47°34' W 052°42'0 0.0
2018-Jun-14 20:57N 47°34' W 052°42'0 0.0
2018-Jun-14 20:30N 47°34' W 052°42'0 0.0
2018-Jun-14 19:41N 47°34' W 052°42'0 0.0
2018-Jun-14 19:28N 47°34' W 052°42'0 0.0
2018-Jun-14 18:57N 47°34' W 052°42'0 0.0
2018-Jun-14 18:30N 47°34' W 052°42'0 0.0
2018-Jun-14 17:20N 47°34' W 052°42'0 0.0
2018-Jun-14 16:55N 47°34' W 052°42'0 0.0
2018-Jun-14 16:29N 47°34' W 052°42'0 0.0
2018-Jun-14 15:58N 47°34' W 052°42'0 0.0
2018-Jun-14 15:28N 47°34' W 052°42'0 0.0
2018-Jun-14 14:53N 47°34' W 052°42'0 0.0
2018-Jun-14 14:25N 47°34' W 052°42'0 0.0
2018-Jun-14 13:59N 47°34' W 052°42'0 0.0
2018-Jun-14 13:30N 47°34' W 052°42'1 1.3
2018-Jun-14 12:57N 47°34' W 052°42'0 0.3
2018-Jun-14 12:29N 47°34' W 052°42'2 3.9
2018-Jun-14 11:57N 47°34' W 052°39'1 1.8
2018-Jun-14 11:29N 47°33' W 052°38'0 0.3
2018-Jun-14 10:58N 47°33' W 052°38'  
Track history (hours):
 
Tides and Currents Weather Stations Pressure Air Temp Water Temp Dewpoint Dewpoint Depression Visibility Wind Speed Wind Dir Waves Ship Positions

Beverly M I

Last reported at 2018-Jun-15 10:47 UTC. Time now 2018-Jun-24 00:56 UTC.
Position N 47°20' W 052°41'.
Warning: this ship's position is 8 days out of date.

Length 34 m; draft 5 m.

Type: Ship. MMSI: 316005971.

Date/timePositionNaut miles runAvg speedWind from/ knotsBaromVisibWave heightAir tempDewpointWater temp
2018-Jun-15 10:47N 47°20' W 052°41'411.6
2018-Jun-15 10:26N 47°24' W 052°38'511.8
2018-Jun-15 09:59N 47°29' W 052°36'5 9.0
2018-Jun-15 09:28N 47°33' W 052°38'3 6.4
2018-Jun-15 08:56N 47°34' W 052°42'0 0.0
2018-Jun-15 08:30N 47°34' W 052°42'0 0.0
2018-Jun-15 08:00N 47°34' W 052°42'0 0.0
2018-Jun-15 07:30N 47°34' W 052°42'0 0.0
2018-Jun-15 06:58N 47°34' W 052°42'0 0.0
2018-Jun-15 06:23N 47°34' W 052°42'0 0.0
2018-Jun-15 05:56N 47°34' W 052°42'0 0.0
2018-Jun-15 05:26N 47°34' W 052°42'0 0.0
2018-Jun-15 05:00N 47°34' W 052°42'0 0.0
2018-Jun-15 04:28N 47°34' W 052°42'0 0.0
2018-Jun-15 03:58N 47°34' W 052°42'0 0.0
2018-Jun-15 03:27N 47°34' W 052°42'0 0.0
2018-Jun-15 02:57N 47°34' W 052°42'0 0.0
2018-Jun-15 02:30N 47°34' W 052°42'0 0.0
2018-Jun-15 01:59N 47°34' W 052°42'0 0.0
2018-Jun-15 01:27N 47°34' W 052°42'0 0.0
2018-Jun-15 00:56N 47°34' W 052°42'0 0.0
2018-Jun-15 00:30N 47°34' W 052°42'0 0.0
2018-Jun-14 23:58N 47°34' W 052°42'0 0.0
2018-Jun-14 23:29N 47°34' W 052°42'0 0.0
2018-Jun-14 22:58N 47°34' W 052°42'0 0.0
2018-Jun-14 22:25N 47°34' W 052°42'0 0.0
2018-Jun-14 21:59N 47°34' W 052°42'0 0.0
2018-Jun-14 21:27N 47°34' W 052°42'0 0.0
2018-Jun-14 20:57N 47°34' W 052°42'0 0.0
2018-Jun-14 20:30N 47°34' W 052°42'0 0.0
2018-Jun-14 19:41N 47°34' W 052°42'0 0.0
2018-Jun-14 19:28N 47°34' W 052°42'0 0.0
2018-Jun-14 18:57N 47°34' W 052°42'0 0.0
2018-Jun-14 18:30N 47°34' W 052°42'0 0.0
2018-Jun-14 17:20N 47°34' W 052°42'0 0.0
2018-Jun-14 16:55N 47°34' W 052°42'0 0.0
2018-Jun-14 16:29N 47°34' W 052°42'0 0.0
2018-Jun-14 15:58N 47°34' W 052°42'0 0.0
2018-Jun-14 15:28N 47°34' W 052°42'0 0.0
2018-Jun-14 14:53N 47°34' W 052°42'0 0.0
2018-Jun-14 14:25N 47°34' W 052°42'0 0.0
2018-Jun-14 13:59N 47°34' W 052°42'0 0.0
2018-Jun-14 13:30N 47°34' W 052°42'1 1.3
2018-Jun-14 12:57N 47°34' W 052°42'0 0.3
2018-Jun-14 12:29N 47°34' W 052°42'2 3.9
2018-Jun-14 11:57N 47°34' W 052°39'1 1.8
2018-Jun-14 11:29N 47°33' W 052°38'0 0.3
2018-Jun-14 10:58N 47°33' W 052°38'  

Dump ship's entire track history